Time;durP1;ratioP1;P1;durP2;ratioP2;P2;SDS_P1;SDS_P2;PMS_P1;PMS_P2;Temp;Humidity;BMP_temperature;BMP_pressure;BME280_temperature;BME280_humidity;BME280_pressure;Samples;Min_cycle;Max_cycle;Signal;HPM_P1;HPM_P2
2021/10/15 00:02:21;;;;;;;11.13;6.15;;;13.40;91.80;;;;;;5050422;28;20041;-77
2021/10/15 00:04:47;;;;;;;14.15;6.32;;;13.40;91.80;;;;;;5034143;28;20041;-78
2021/10/15 00:07:12;;;;;;;12.30;5.75;;;13.40;91.80;;;;;;5050259;28;20040;-78
2021/10/15 00:09:38;;;;;;;14.63;7.53;;;13.40;91.90;;;;;;5050715;28;20463;-78
2021/10/15 00:12:04;;;;;;;15.23;6.43;;;13.30;91.90;;;;;;5050541;28;20025;-77
2021/10/15 00:14:30;;;;;;;12.07;6.50;;;13.30;91.90;;;;;;5050650;28;20125;-77
2021/10/15 00:16:56;;;;;;;12.60;6.40;;;13.30;92.00;;;;;;5035200;28;20109;-78
2021/10/15 00:19:21;;;;;;;12.73;6.60;;;13.30;91.90;;;;;;5050674;28;20112;-77
2021/10/15 00:21:47;;;;;;;11.50;6.20;;;13.30;92.00;;;;;;5049884;28;20037;-77
2021/10/15 00:24:13;;;;;;;10.18;6.13;;;13.40;92.00;;;;;;5035270;28;20068;-77
2021/10/15 00:26:38;;;;;;;12.35;6.18;;;13.30;92.10;;;;;;5050316;28;20029;-78
2021/10/15 00:29:05;;;;;;;13.07;6.18;;;13.30;92.10;;;;;;5049890;28;20034;-77
2021/10/15 00:31:32;;;;;;;11.77;6.20;;;13.30;92.10;;;;;;5049857;28;20033;-77
2021/10/15 00:33:57;;;;;;;14.70;7.40;;;13.30;92.20;;;;;;5049803;28;20080;-78
2021/10/15 00:36:23;;;;;;;10.73;6.32;;;13.30;92.20;;;;;;5050194;28;20045;-79
2021/10/15 00:38:49;;;;;;;12.73;7.07;;;13.20;92.20;;;;;;5049851;28;20103;-79
2021/10/15 00:41:15;;;;;;;14.65;6.60;;;13.30;92.30;;;;;;5049748;28;20128;-78
2021/10/15 00:44:04;;;;;;;10.98;5.75;;;13.20;92.30;;;;;;5049721;28;20366;-79
2021/10/15 00:46:30;;;;;;;12.75;7.05;;;13.30;92.40;;;;;;5034326;28;20528;-79
2021/10/15 00:48:55;;;;;;;13.20;6.93;;;13.30;92.40;;;;;;5049802;28;20117;-78
2021/10/15 00:51:21;;;;;;;12.45;6.63;;;13.20;92.40;;;;;;5049705;28;20057;-78
2021/10/15 00:53:48;;;;;;;14.07;6.82;;;13.30;92.50;;;;;;5034391;28;20021;-79
2021/10/15 00:56:14;;;;;;;13.77;7.30;;;13.20;92.50;;;;;;5048764;28;20055;-78
2021/10/15 00:58:40;;;;;;;13.98;7.38;;;13.20;92.40;;;;;;5049299;28;20029;-78
2021/10/15 01:01:05;;;;;;;11.93;6.47;;;13.20;92.50;;;;;;5049457;28;20057;-78
2021/10/15 01:03:31;;;;;;;12.85;6.95;;;13.20;92.50;;;;;;5048781;28;20033;-78
2021/10/15 01:05:57;;;;;;;12.02;6.40;;;13.20;92.60;;;;;;5049709;28;20034;-78
2021/10/15 01:08:22;;;;;;;12.45;6.43;;;13.20;92.60;;;;;;5049661;28;20057;-78
2021/10/15 01:10:49;;;;;;;11.98;6.63;;;13.20;92.60;;;;;;5049776;28;20036;-79
2021/10/15 01:13:14;;;;;;;12.07;6.18;;;13.20;92.60;;;;;;5049304;28;20358;-79
2021/10/15 01:15:40;;;;;;;12.38;6.28;;;13.20;92.70;;;;;;5034033;28;20063;-78
2021/10/15 01:18:15;;;;;;;14.20;7.20;;;13.20;92.70;;;;;;5032752;28;20026;-79
2021/10/15 01:20:42;;;;;;;11.15;6.20;;;13.20;92.70;;;;;;5049508;28;20033;-79
2021/10/15 01:23:08;;;;;;;10.27;6.55;;;13.20;92.70;;;;;;5049202;28;20476;-78
2021/10/15 01:25:35;;;;;;;11.88;6.57;;;13.20;92.70;;;;;;5033424;28;20044;-77
2021/10/15 01:28:02;;;;;;;11.80;6.60;;;13.20;92.80;;;;;;5032847;28;20029;-77
2021/10/15 01:30:29;;;;;;;9.63;6.00;;;13.20;92.80;;;;;;5032445;28;20034;-77
2021/10/15 01:32:54;;;;;;;13.15;7.40;;;13.20;92.80;;;;;;5048655;28;20025;-77
2021/10/15 01:35:20;;;;;;;16.02;6.53;;;13.20;92.90;;;;;;5033656;28;20477;-77
2021/10/15 01:37:46;;;;;;;10.50;6.15;;;13.20;92.90;;;;;;5033903;28;20026;-78
2021/10/15 01:40:12;;;;;;;13.10;7.30;;;13.20;93.00;;;;;;5033285;28;20026;-77
2021/10/15 01:42:53;;;;;;;11.43;6.70;;;13.20;93.00;;;;;;5033473;28;20485;-78
2021/10/15 01:45:20;;;;;;;14.50;7.78;;;13.20;93.00;;;;;;5048680;28;20474;-78
2021/10/15 01:47:45;;;;;;;12.00;7.50;;;13.20;93.10;;;;;;5048853;28;20120;-78
2021/10/15 01:50:11;;;;;;;14.57;8.88;;;13.10;93.20;;;;;;5033940;28;20083;-77
2021/10/15 01:52:37;;;;;;;13.48;7.55;;;13.20;93.20;;;;;;5032938;28;20022;-77
2021/10/15 01:55:08;;;;;;;13.07;7.40;;;13.20;93.20;;;;;;5048659;28;20087;-78
2021/10/15 01:57:34;;;;;;;17.50;7.68;;;13.20;93.20;;;;;;5047738;28;20067;-77
2021/10/15 02:00:00;;;;;;;13.93;7.80;;;13.10;93.20;;;;;;5033120;28;20086;-77
2021/10/15 02:02:25;;;;;;;13.90;7.40;;;13.10;93.20;;;;;;5048443;28;20108;-78
2021/10/15 02:04:52;;;;;;;13.90;8.18;;;13.10;93.20;;;;;;5048486;28;20025;-77
2021/10/15 02:07:18;;;;;;;13.15;8.13;;;13.20;93.30;;;;;;5033177;28;20048;-77
2021/10/15 02:09:44;;;;;;;16.92;8.00;;;13.30;93.40;;;;;;5048739;28;20032;-77
2021/10/15 02:12:10;;;;;;;14.90;8.75;;;13.10;93.40;;;;;;5048493;28;20034;-77
2021/10/15 02:14:35;;;;;;;13.02;7.78;;;13.10;93.40;;;;;;5047752;28;20107;-77
2021/10/15 02:17:01;;;;;;;11.50;7.20;;;13.10;93.40;;;;;;5048397;28;20033;-77
2021/10/15 02:19:27;;;;;;;17.55;9.82;;;13.10;93.40;;;;;;5032861;28;20028;-78
2021/10/15 02:21:53;;;;;;;15.50;9.10;;;13.20;93.40;;;;;;5033189;28;20029;-77
2021/10/15 02:24:19;;;;;;;16.00;8.98;;;13.10;93.50;;;;;;5032789;28;20469;-78
2021/10/15 02:26:45;;;;;;;13.13;7.95;;;13.10;93.50;;;;;;5048466;28;20037;-78
2021/10/15 02:29:10;;;;;;;13.50;7.53;;;13.10;93.50;;;;;;5048353;28;20049;-78
2021/10/15 02:31:36;;;;;;;13.18;8.13;;;13.10;93.50;;;;;;5032679;28;20034;-78
2021/10/15 02:34:02;;;;;;;13.57;8.20;;;13.10;93.50;;;;;;5032690;28;20397;-78
2021/10/15 02:36:27;;;;;;;14.90;9.00;;;13.00;93.50;;;;;;5048196;28;20124;-78
2021/10/15 02:38:53;;;;;;;13.98;8.52;;;13.00;93.60;;;;;;5048103;28;20469;-78
2021/10/15 02:41:19;;;;;;;15.18;9.65;;;13.00;93.60;;;;;;5048120;28;20032;-78
2021/10/15 02:43:44;;;;;;;20.48;8.40;;;13.10;93.70;;;;;;5032638;28;20032;-78
2021/10/15 02:46:12;;;;;;;14.73;7.65;;;13.00;93.60;;;;;;5033144;28;20080;-77
2021/10/15 02:48:37;;;;;;;13.32;7.75;;;13.00;93.70;;;;;;5032731;28;20036;-77
2021/10/15 02:51:03;;;;;;;18.35;9.32;;;13.00;93.70;;;;;;5048291;28;20473;-78
2021/10/15 02:53:28;;;;;;;15.57;9.85;;;13.00;93.70;;;;;;5047732;28;20060;-77
2021/10/15 02:55:54;;;;;;;19.38;8.65;;;13.00;93.80;;;;;;5048130;28;20045;-77
2021/10/15 02:58:20;;;;;;;14.50;8.20;;;13.00;93.90;;;;;;5047796;28;20124;-77
2021/10/15 03:00:45;;;;;;;12.70;8.38;;;12.90;93.90;;;;;;5048047;28;20054;-77
2021/10/15 03:03:11;;;;;;;14.50;9.00;;;13.00;94.00;;;;;;5032208;28;20044;-77
2021/10/15 03:05:37;;;;;;;16.40;8.93;;;13.00;94.10;;;;;;5048002;28;20021;-78
2021/10/15 03:08:02;;;;;;;14.43;8.38;;;12.90;94.10;;;;;;5032816;28;20033;-78
2021/10/15 03:10:28;;;;;;;15.60;9.23;;;13.00;94.10;;;;;;5032543;28;20030;-78
2021/10/15 03:12:54;;;;;;;14.65;9.20;;;13.00;94.10;;;;;;5031943;28;20397;-78
2021/10/15 03:15:19;;;;;;;15.80;9.02;;;13.00;94.10;;;;;;5047985;28;20049;-77
2021/10/15 03:17:45;;;;;;;17.23;9.77;;;12.90;94.10;;;;;;5031730;28;20037;-78
2021/10/15 03:20:11;;;;;;;15.32;8.93;;;12.90;94.20;;;;;;5051248;28;20026;-78
2021/10/15 03:22:37;;;;;;;14.27;8.90;;;13.00;94.20;;;;;;5035699;28;20049;-78
2021/10/15 03:25:03;;;;;;;15.27;9.05;;;13.00;94.20;;;;;;5033408;28;20018;-77
2021/10/15 03:27:28;;;;;;;13.57;8.30;;;12.90;94.20;;;;;;5050103;28;20045;-77
2021/10/15 03:29:54;;;;;;;12.15;8.43;;;12.90;94.20;;;;;;5034787;28;20385;-77
2021/10/15 03:32:19;;;;;;;17.52;9.52;;;12.90;94.20;;;;;;5035840;28;20116;-77
2021/10/15 03:34:45;;;;;;;14.98;9.85;;;12.90;94.30;;;;;;5035542;28;20588;-78
2021/10/15 03:37:11;;;;;;;18.38;9.05;;;12.90;94.30;;;;;;5034921;28;20040;-78
2021/10/15 03:39:37;;;;;;;16.70;9.13;;;12.90;94.30;;;;;;5034585;28;20029;-77
2021/10/15 03:42:02;;;;;;;16.38;8.77;;;12.90;94.40;;;;;;5035459;28;20033;-77
2021/10/15 03:44:28;;;;;;;16.30;9.60;;;12.90;94.40;;;;;;5034636;28;20394;-77
2021/10/15 03:46:54;;;;;;;18.20;9.50;;;12.90;94.40;;;;;;5051006;28;20397;-78
2021/10/15 03:49:19;;;;;;;13.10;8.38;;;12.90;94.40;;;;;;5050605;28;20053;-78
2021/10/15 03:51:45;;;;;;;14.68;8.88;;;12.90;94.50;;;;;;5051056;28;20385;-79
2021/10/15 03:54:10;;;;;;;18.60;8.60;;;12.90;94.50;;;;;;5050814;28;20034;-78
2021/10/15 03:56:36;;;;;;;18.30;8.57;;;12.90;94.50;;;;;;5035082;28;20438;-77
2021/10/15 03:59:02;;;;;;;14.88;9.45;;;12.90;94.50;;;;;;5050467;28;20047;-78
2021/10/15 04:01:27;;;;;;;17.55;8.27;;;12.90;94.50;;;;;;5050693;28;20506;-78
2021/10/15 04:03:53;;;;;;;13.82;8.55;;;12.90;94.50;;;;;;5033849;28;20484;-78
2021/10/15 04:06:18;;;;;;;14.02;8.48;;;12.90;94.50;;;;;;5035342;28;20056;-77
2021/10/15 04:08:44;;;;;;;13.82;8.60;;;12.90;94.50;;;;;;5050898;28;20482;-78
2021/10/15 04:11:10;;;;;;;13.75;8.63;;;12.90;94.70;;;;;;5050673;28;20095;-78
2021/10/15 04:13:35;;;;;;;14.65;9.18;;;12.90;94.50;;;;;;5050434;28;20142;-78
2021/10/15 04:16:04;;;;;;;17.95;9.35;;;12.90;94.50;;;;;;5050508;28;20049;-79
2021/10/15 04:18:29;;;;;;;15.10;10.20;;;12.90;94.50;;;;;;5035225;28;20060;-78
2021/10/15 04:20:55;;;;;;;16.35;9.90;;;12.90;94.60;;;;;;5050507;28;20053;-78
2021/10/15 04:23:21;;;;;;;16.38;9.00;;;12.90;94.70;;;;;;5050573;28;20174;-78
2021/10/15 04:25:47;;;;;;;15.73;10.05;;;12.90;94.70;;;;;;5034430;28;20029;-77
2021/10/15 04:28:12;;;;;;;16.25;9.43;;;12.90;94.80;;;;;;5033882;28;20064;-78
2021/10/15 04:30:38;;;;;;;16.95;9.90;;;12.90;94.80;;;;;;5049099;28;20030;-77
2021/10/15 04:33:04;;;;;;;20.13;11.05;;;12.90;94.90;;;;;;5049792;28;20037;-78
2021/10/15 04:35:29;;;;;;;17.30;9.65;;;12.90;95.00;;;;;;5050449;28;20046;-78
2021/10/15 04:37:55;;;;;;;18.65;11.10;;;12.90;95.00;;;;;;5033346;28;20034;-78
2021/10/15 04:40:21;;;;;;;19.50;10.82;;;12.90;95.10;;;;;;5049855;28;20053;-77
2021/10/15 04:42:46;;;;;;;16.90;10.55;;;12.90;95.10;;;;;;5049622;28;20036;-77
2021/10/15 04:45:12;;;;;;;18.27;10.25;;;12.90;95.10;;;;;;5034686;28;20108;-78
2021/10/15 04:47:38;;;;;;;18.83;11.63;;;12.90;95.10;;;;;;5049798;28;20034;-78
2021/10/15 04:50:06;;;;;;;19.33;10.82;;;12.90;95.10;;;;;;5049838;28;20545;-77
2021/10/15 04:52:31;;;;;;;20.75;11.15;;;12.90;95.20;;;;;;5034247;28;20469;-78
2021/10/15 04:54:57;;;;;;;14.90;10.13;;;12.80;95.10;;;;;;5034116;28;20044;-77
2021/10/15 04:57:23;;;;;;;17.60;11.15;;;12.90;95.20;;;;;;5034497;28;20034;-77
2021/10/15 04:59:49;;;;;;;21.67;10.90;;;12.90;95.30;;;;;;5033859;28;20077;-77
2021/10/15 05:02:14;;;;;;;18.25;10.82;;;12.90;95.30;;;;;;5049515;28;20120;-77
2021/10/15 05:04:41;;;;;;;20.40;10.70;;;12.90;95.40;;;;;;5032933;28;20065;-77
2021/10/15 05:07:07;;;;;;;16.35;11.02;;;12.90;95.40;;;;;;5049616;28;20056;-78
2021/10/15 05:12:00;;;;;;;20.35;11.05;;;12.90;95.50;;;;;;5049830;28;20038;-78
2021/10/15 05:14:25;;;;;;;19.67;11.63;;;12.90;95.80;;;;;;5032230;28;20485;-78
2021/10/15 05:16:52;;;;;;;22.95;10.25;;;12.90;95.50;;;;;;5034144;28;20052;-78
2021/10/15 05:19:18;;;;;;;17.83;10.77;;;12.90;95.60;;;;;;5049551;28;20079;-78
2021/10/15 05:21:44;;;;;;;21.50;11.15;;;12.80;95.60;;;;;;5048944;28;20067;-78
2021/10/15 05:24:10;;;;;;;20.38;12.57;;;12.90;95.60;;;;;;5032332;28;20041;-78
2021/10/15 05:26:36;;;;;;;20.00;11.43;;;12.90;95.80;;;;;;5049723;28;20025;-77
2021/10/15 05:29:01;;;;;;;17.27;10.80;;;12.90;95.90;;;;;;5016680;28;20026;-78
2021/10/15 05:31:27;;;;;;;18.48;11.05;;;12.90;95.90;;;;;;5048904;28;20029;-78
2021/10/15 05:33:53;;;;;;;20.38;12.27;;;12.90;96.00;;;;;;5040962;28;20029;-78
2021/10/15 05:36:18;;;;;;;18.63;12.05;;;12.90;96.30;;;;;;5049345;28;20073;-78
2021/10/15 05:38:44;;;;;;;20.48;12.98;;;12.90;96.10;;;;;;5038415;28;20034;-79
2021/10/15 05:41:09;;;;;;;18.10;11.70;;;12.90;96.20;;;;;;5031378;28;20038;-77
2021/10/15 05:43:35;;;;;;;19.77;12.05;;;12.80;96.10;;;;;;5031357;28;20030;-79
2021/10/15 05:46:02;;;;;;;16.38;10.02;;;12.90;96.20;;;;;;5032245;28;20064;-78
2021/10/15 05:48:28;;;;;;;21.80;13.75;;;12.90;96.20;;;;;;5038088;28;20025;-78
2021/10/15 05:50:53;;;;;;;20.30;13.63;;;12.90;96.20;;;;;;5041538;28;20432;-77
2021/10/15 05:53:21;;;;;;;26.05;12.30;;;12.90;96.30;;;;;;5041524;28;20501;-78
2021/10/15 05:59:10;;;;;;;21.33;13.75;;;12.80;96.30;;;;;;5041929;28;20033;-78
2021/10/15 06:01:11;;;;;;;17.30;12.65;;;12.90;96.40;;;;;;5037548;28;20132;-78
2021/10/15 06:03:37;;;;;;;21.35;12.95;;;12.90;96.40;;;;;;5042660;28;20121;-77
2021/10/15 06:14:15;;;;;;;18.52;12.18;;;12.80;96.50;;;;;;5039959;28;20040;-78
2021/10/15 06:16:47;;;;;;;20.63;13.25;;;12.90;96.40;;;;;;5025825;28;20481;-77
2021/10/15 06:19:15;;;;;;;19.10;12.27;;;12.90;96.50;;;;;;5024741;28;20017;-78
2021/10/15 06:21:41;;;;;;;20.02;11.95;;;12.90;96.60;;;;;;5042077;28;20036;-78
2021/10/15 06:24:07;;;;;;;18.42;12.95;;;12.90;96.60;;;;;;5023957;28;20025;-78
2021/10/15 06:26:32;;;;;;;25.05;13.75;;;12.90;96.60;;;;;;5040202;28;20037;-77
2021/10/15 06:28:58;;;;;;;22.33;13.32;;;12.90;96.60;;;;;;5025301;28;20024;-78
2021/10/15 06:31:24;;;;;;;20.52;14.18;;;12.90;96.60;;;;;;5040199;28;20116;-78
2021/10/15 06:33:49;;;;;;;20.73;13.80;;;13.00;96.70;;;;;;5035339;28;20029;-78
2021/10/15 06:36:15;;;;;;;22.15;15.02;;;13.00;96.70;;;;;;5032644;28;20120;-78
2021/10/15 06:38:40;;;;;;;23.48;14.45;;;13.00;96.80;;;;;;5031517;28;20076;-78
2021/10/15 06:41:06;;;;;;;23.02;15.05;;;12.90;96.80;;;;;;5031326;28;20038;-78
2021/10/15 06:43:32;;;;;;;23.90;14.52;;;13.00;96.90;;;;;;5031623;28;20107;-78
2021/10/15 06:45:58;;;;;;;22.73;14.90;;;13.00;97.10;;;;;;5031295;28;20393;-77
2021/10/15 06:48:23;;;;;;;22.55;15.52;;;13.00;97.30;;;;;;5032623;28;20026;-77
2021/10/15 06:50:49;;;;;;;24.90;15.40;;;13.00;97.40;;;;;;5031210;28;20040;-77
2021/10/15 06:53:14;;;;;;;26.45;16.25;;;13.00;97.60;;;;;;5032157;28;20487;-77
2021/10/15 06:55:40;;;;;;;25.45;16.75;;;13.00;97.90;;;;;;5018655;28;20045;-77
2021/10/15 06:58:06;;;;;;;22.45;15.20;;;13.00;98.00;;;;;;5035188;28;20036;-77
2021/10/15 07:00:32;;;;;;;27.88;19.33;;;12.90;98.10;;;;;;5036676;28;20053;-77
2021/10/15 07:02:58;;;;;;;30.48;18.73;;;12.90;98.30;;;;;;5018125;28;20025;-77
2021/10/15 07:05:24;;;;;;;28.42;19.05;;;12.90;98.20;;;;;;5018869;28;20504;-77
2021/10/15 07:07:51;;;;;;;30.92;20.05;;;12.90;98.50;;;;;;5018798;28;20374;-77
2021/10/15 07:10:17;;;;;;;28.02;19.23;;;12.80;98.80;;;;;;5035220;28;20033;-77
2021/10/15 07:12:44;;;;;;;18.40;9.85;;;12.80;99.00;;;;;;5035974;28;20068;-77
2021/10/15 07:15:12;;;;;;;12.95;7.68;;;12.80;98.90;;;;;;5036231;28;20041;-77
2021/10/15 07:17:38;;;;;;;10.98;6.00;;;12.80;98.90;;;;;;5037608;28;20052;-77
2021/10/15 07:20:06;;;;;;;7.35;3.78;;;12.70;98.80;;;;;;5046677;28;20060;-77
2021/10/15 07:22:31;;;;;;;7.32;3.08;;;12.70;98.80;;;;;;5029320;28;20025;-77
2021/10/15 07:24:57;;;;;;;5.47;2.30;;;12.60;98.70;;;;;;5044518;28;20027;-78
2021/10/15 07:27:23;;;;;;;3.75;1.67;;;12.70;98.70;;;;;;5043803;28;20443;-77
2021/10/15 07:29:48;;;;;;;3.92;1.20;;;12.60;98.60;;;;;;5049248;28;20477;-77
2021/10/15 07:32:14;;;;;;;2.70;0.70;;;12.60;98.60;;;;;;5054297;28;20025;-77
2021/10/15 07:34:40;;;;;;;2.80;1.02;;;12.70;98.70;;;;;;5056284;28;20041;-78
2021/10/15 07:37:06;;;;;;;2.08;0.70;;;12.70;98.60;;;;;;5063541;28;20036;-83
2021/10/15 07:39:31;;;;;;;2.03;0.20;;;12.70;98.60;;;;;;5062014;28;20025;-87
2021/10/15 07:41:57;;;;;;;2.55;0.30;;;12.70;98.40;;;;;;5061738;28;20474;-86
2021/10/15 07:44:23;;;;;;;2.55;0.22;;;12.60;98.20;;;;;;5069860;28;20056;-87
2021/10/15 07:46:49;;;;;;;1.38;0.20;;;12.50;98.00;;;;;;5060686;28;20108;-86
2021/10/15 07:49:14;;;;;;;2.28;0.20;;;12.60;98.00;;;;;;5056097;28;20029;-83
2021/10/15 07:51:40;;;;;;;0.35;0.10;;;12.50;97.90;;;;;;5038156;28;20090;-86
2021/10/15 07:54:06;;;;;;;1.67;0.10;;;12.50;97.90;;;;;;5055996;28;20040;-84
2021/10/15 07:56:35;;;;;;;3.05;0.20;;;12.50;97.80;;;;;;5042708;28;20168;-86
2021/10/15 07:59:00;;;;;;;2.95;0.20;;;12.50;97.80;;;;;;5034870;28;20171;-85
2021/10/15 08:01:26;;;;;;;1.38;0.20;;;12.60;97.90;;;;;;5035937;28;20081;-83
2021/10/15 08:03:53;;;;;;;2.03;0.20;;;12.60;97.90;;;;;;5034168;28;20052;-86
2021/10/15 08:06:20;;;;;;;4.32;0.10;;;12.60;97.90;;;;;;5035615;28;20036;-86
2021/10/15 08:08:46;;;;;;;0.73;0.15;;;12.60;97.90;;;;;;5018327;28;20036;-87
2021/10/15 08:11:12;;;;;;;2.50;0.15;;;12.70;97.80;;;;;;5036169;28;20026;-88
2021/10/15 08:13:39;;;;;;;0.85;0.10;;;12.70;97.80;;;;;;5035680;28;20100;-86
2021/10/15 08:16:05;;;;;;;1.65;0.28;;;12.70;97.70;;;;;;5035344;28;20037;-86
2021/10/15 08:18:31;;;;;;;0.95;0.10;;;12.70;97.60;;;;;;5034185;28;20128;-86
2021/10/15 08:20:59;;;;;;;2.05;0.20;;;12.80;97.60;;;;;;5034063;28;20481;-84
2021/10/15 08:23:27;;;;;;;3.40;0.75;;;12.80;97.50;;;;;;5036245;28;20061;-84
2021/10/15 08:25:57;;;;;;;2.65;0.30;;;12.70;97.40;;;;;;5035442;28;20036;-83
2021/10/15 08:28:24;;;;;;;3.05;0.47;;;12.80;97.40;;;;;;5018614;28;20025;-84
2021/10/15 08:30:49;;;;;;;3.22;0.30;;;12.80;97.40;;;;;;5035710;28;20079;-85
2021/10/15 08:33:15;;;;;;;2.78;0.50;;;12.80;97.40;;;;;;5036450;28;20413;-84
2021/10/15 08:35:41;;;;;;;1.98;0.32;;;12.80;97.30;;;;;;5021637;28;20068;-85
2021/10/15 08:38:07;;;;;;;2.85;0.32;;;12.80;97.10;;;;;;5023117;28;20497;-85
2021/10/15 08:40:32;;;;;;;3.50;0.20;;;12.80;97.10;;;;;;5041503;28;20113;-86
2021/10/15 08:42:58;;;;;;;5.00;0.47;;;12.80;97.10;;;;;;5024037;28;20462;-84
2021/10/15 08:45:29;;;;;;;4.05;0.47;;;12.80;97.10;;;;;;5019758;28;20029;-86
2021/10/15 08:47:56;;;;;;;3.97;0.38;;;12.80;97.10;;;;;;5037045;28;20025;-86
2021/10/15 08:50:23;;;;;;;4.65;0.50;;;12.80;97.10;;;;;;5037119;28;20500;-87
2021/10/15 08:52:49;;;;;;;4.00;0.52;;;12.80;97.00;;;;;;5019315;28;20034;-85
2021/10/15 08:55:15;;;;;;;4.10;0.40;;;12.80;96.90;;;;;;5039285;28;20037;-86
2021/10/15 08:57:58;;;;;;;8.13;0.50;;;12.90;96.90;;;;;;5053246;28;20033;-85
2021/10/15 09:00:26;;;;;;;7.20;0.60;;;12.90;96.90;;;;;;5067070;28;20060;-85
2021/10/15 09:03:28;;;;;;;4.53;0.40;;;13.00;96.80;;;;;;5036027;28;20021;-84
2021/10/15 09:06:02;;;;;;;6.72;0.50;;;13.10;96.70;;;;;;5000963;28;20499;-89
2021/10/15 09:08:47;;;;;;;2.58;0.47;;;13.20;96.60;;;;;;5036154;28;20040;-85
2021/10/15 09:11:28;;;;;;;7.15;0.75;;;13.20;96.40;;;;;;5032773;28;20029;-88
2021/10/15 09:14:13;;;;;;;6.50;0.80;;;13.30;96.30;;;;;;5034134;28;20397;-88
2021/10/15 09:17:01;;;;;;;3.88;0.63;;;13.30;96.00;;;;;;5034132;28;20063;-85
2021/10/15 09:19:37;;;;;;;6.32;0.60;;;13.30;95.90;;;;;;5033552;28;20018;-87
2021/10/15 09:22:26;;;;;;;5.85;0.60;;;13.30;95.80;;;;;;5033359;28;20049;-88
2021/10/15 09:24:55;;;;;;;8.13;0.60;;;13.30;95.70;;;;;;5034831;28;20481;-85
2021/10/15 09:27:36;;;;;;;5.63;0.63;;;13.40;95.70;;;;;;5034292;28;20381;-87
2021/10/15 09:30:14;;;;;;;5.88;0.57;;;13.40;95.90;;;;;;5033415;28;20056;-87
2021/10/15 09:32:48;;;;;;;2.60;0.50;;;13.50;95.80;;;;;;5033686;28;20079;-85
2021/10/15 09:35:18;;;;;;;5.35;0.60;;;13.60;95.80;;;;;;5032827;28;20049;-86
2021/10/15 09:37:46;;;;;;;6.43;0.73;;;13.70;95.60;;;;;;5035051;28;20030;-89
2021/10/15 09:40:19;;;;;;;5.07;0.70;;;13.80;95.40;;;;;;5032498;28;20022;-84
2021/10/15 09:42:53;;;;;;;14.47;0.93;;;13.80;95.10;;;;;;5033086;28;20099;-84
2021/10/15 09:45:22;;;;;;;4.30;0.98;;;13.90;94.90;;;;;;5034256;28;20029;-86
2021/10/15 09:47:52;;;;;;;9.93;0.93;;;14.00;95.00;;;;;;5034165;28;20028;-86
2021/10/15 09:50:20;;;;;;;6.90;0.75;;;14.20;95.10;;;;;;5032481;28;20017;-89
2021/10/15 09:52:51;;;;;;;4.05;1.05;;;14.60;94.90;;;;;;5033683;28;20036;-88
2021/10/15 09:55:18;;;;;;;5.03;0.82;;;15.20;95.10;;;;;;5045569;28;20040;-95
2021/10/15 09:57:48;;;;;;;4.68;0.70;;;15.80;95.10;;;;;;5048077;28;20029;-89
2021/10/15 10:00:27;;;;;;;5.32;1.02;;;16.50;94.90;;;;;;5040592;28;20052;-84
2021/10/15 10:02:53;;;;;;;6.03;0.80;;;17.20;93.80;;;;;;5032643;28;20033;-82
2021/10/15 10:05:20;;;;;;;4.40;0.85;;;17.80;93.30;;;;;;5033406;28;20064;-83
2021/10/15 10:07:48;;;;;;;6.05;0.93;;;18.30;92.30;;;;;;5031849;28;20030;-85
2021/10/15 10:10:22;;;;;;;4.97;0.82;;;18.70;89.60;;;;;;5033076;28;20057;-85
2021/10/15 10:12:49;;;;;;;5.50;0.93;;;18.80;86.20;;;;;;5033779;28;20121;-83
2021/10/15 10:15:18;;;;;;;4.95;0.70;;;18.90;85.40;;;;;;5033278;28;20497;-84
2021/10/15 10:20:45;;;;;;;4.88;0.60;;;19.50;83.60;;;;;;5033431;28;20032;-83
2021/10/15 10:23:25;;;;;;;4.90;1.05;;;19.50;80.20;;;;;;5031712;28;20470;-84
2021/10/15 10:26:00;;;;;;;6.57;1.23;;;19.20;74.40;;;;;;5033190;28;20022;-84
2021/10/15 10:28:27;;;;;;;5.25;0.82;;;19.30;76.40;;;;;;5034462;28;20029;-87
2021/10/15 10:31:03;;;;;;;4.80;1.00;;;19.70;76.40;;;;;;5036538;28;20466;-89
2021/10/15 10:33:30;;;;;;;8.65;0.90;;;20.20;74.80;;;;;;5036905;28;20060;-87
2021/10/15 10:36:12;;;;;;;3.88;0.60;;;20.70;74.40;;;;;;5037585;28;20459;-91
2021/10/15 10:38:39;;;;;;;4.35;0.88;;;21.10;73.50;;;;;;5036424;28;20059;-86
2021/10/15 10:41:04;;;;;;;7.15;0.98;;;21.30;70.30;;;;;;5037228;28;20037;-86
2021/10/15 10:43:31;;;;;;;4.80;0.82;;;21.40;69.10;;;;;;5037350;28;20381;-84
2021/10/15 10:46:24;;;;;;;3.75;0.50;;;21.70;66.90;;;;;;5036481;28;20025;-89
2021/10/15 10:48:50;;;;;;;4.72;0.50;;;22.00;63.10;;;;;;5037868;28;20056;-93
2021/10/15 10:51:19;;;;;;;6.00;0.77;;;22.30;62.10;;;;;;5040757;28;20025;-93
2021/10/15 10:56:46;;;;;;;3.40;0.60;;;22.70;59.10;;;;;;5040652;28;20037;-91
2021/10/15 10:59:18;;;;;;;3.58;0.70;;;23.10;59.50;;;;;;5049724;28;20552;-94
2021/10/15 11:01:54;;;;;;;5.00;0.70;;;23.30;59.10;;;;;;5048999;28;20052;-90
2021/10/15 11:04:27;;;;;;;5.28;0.60;;;23.30;58.40;;;;;;5048536;28;20028;-91
2021/10/15 11:06:57;;;;;;;4.78;0.80;;;23.50;57.30;;;;;;5044751;28;20040;-90
2021/10/15 11:09:41;;;;;;;7.45;0.63;;;23.10;53.50;;;;;;5056270;28;20032;-89
2021/10/15 11:12:12;;;;;;;3.80;0.50;;;22.80;54.70;;;;;;5056066;28;20017;-91
2021/10/15 11:14:57;;;;;;;4.88;0.70;;;22.90;55.70;;;;;;5044757;28;20022;-90
2021/10/15 11:17:36;;;;;;;4.95;0.80;;;23.30;55.20;;;;;;5048190;28;20087;-88
2021/10/15 11:20:24;;;;;;;7.97;0.65;;;23.10;54.60;;;;;;5048952;28;20021;-89
2021/10/15 11:23:02;;;;;;;5.43;0.73;;;23.10;54.30;;;;;;5045903;28;20025;-89
2021/10/15 11:25:41;;;;;;;3.28;0.60;;;22.90;53.60;;;;;;5054188;28;20033;-88
2021/10/15 11:28:10;;;;;;;6.60;0.77;;;22.60;53.90;;;;;;5051891;28;20415;-89
2021/10/15 11:30:44;;;;;;;6.68;0.90;;;22.50;53.70;;;;;;5053674;28;20031;-89
2021/10/15 11:33:19;;;;;;;4.45;0.50;;;22.20;54.00;;;;;;5063776;28;20083;-91
2021/10/15 11:35:46;;;;;;;4.75;0.70;;;21.70;53.80;;;;;;5052929;28;20044;-91
2021/10/15 11:38:22;;;;;;;3.80;0.60;;;21.30;54.30;;;;;;5055720;28;20533;-86
2021/10/15 11:41:09;;;;;;;5.07;0.52;;;20.90;54.70;;;;;;5038615;28;20120;-91
2021/10/15 11:43:44;;;;;;;3.78;0.65;;;20.60;55.80;;;;;;5056021;28;20045;-92
2021/10/15 11:46:14;;;;;;;8.75;1.00;;;21.00;56.60;;;;;;5059214;28;20041;-92
2021/10/15 11:48:40;;;;;;;6.50;0.95;;;21.50;56.80;;;;;;5063765;28;20025;-93
2021/10/15 11:51:13;;;;;;;8.25;1.08;;;22.10;56.60;;;;;;5059743;28;20036;-90
2021/10/15 11:53:43;;;;;;;4.85;0.73;;;22.40;55.30;;;;;;5059827;28;20040;-92
2021/10/15 11:56:14;;;;;;;5.30;0.52;;;22.30;54.00;;;;;;5060596;28;20036;-92
2021/10/15 11:59:00;;;;;;;7.05;0.85;;;22.10;53.70;;;;;;5060085;28;20067;-91
2021/10/15 12:01:34;;;;;;;5.85;0.50;;;21.70;52.90;;;;;;5060712;28;20045;-93
2021/10/15 12:04:01;;;;;;;7.03;0.50;;;21.50;52.10;;;;;;5073035;28;20029;-94
2021/10/15 12:06:31;;;;;;;6.03;0.68;;;21.10;51.40;;;;;;5072818;28;20025;-92
2021/10/15 12:08:56;;;;;;;6.63;1.15;;;21.10;53.00;;;;;;5055719;28;20021;-92
2021/10/15 12:12:07;;;;;;;3.70;0.50;;;21.70;53.90;;;;;;5056277;28;20027;-92
2021/10/15 12:14:35;;;;;;;3.72;0.60;;;22.50;53.80;;;;;;5054164;28;20044;-90
2021/10/15 12:17:05;;;;;;;7.22;0.80;;;23.60;53.30;;;;;;5056393;28;20040;-91
2021/10/15 12:19:51;;;;;;;6.03;0.70;;;24.30;51.40;;;;;;5056353;28;20110;-91
2021/10/15 12:22:20;;;;;;;6.22;0.60;;;24.80;49.80;;;;;;5055664;28;20039;-91
2021/10/15 12:24:47;;;;;;;7.63;0.77;;;24.60;47.80;;;;;;5055441;28;20027;-89
2021/10/15 12:27:19;;;;;;;7.65;0.80;;;24.20;46.10;;;;;;5056468;28;20082;-89
2021/10/15 12:29:49;;;;;;;5.32;0.70;;;23.50;46.00;;;;;;5048772;28;20385;-90
2021/10/15 12:32:21;;;;;;;9.25;1.10;;;22.70;47.00;;;;;;5062281;28;20048;-90
2021/10/15 12:35:03;;;;;;;9.65;1.17;;;21.90;48.20;;;;;;5054586;28;20021;-89
2021/10/15 12:37:50;;;;;;;7.53;1.20;;;21.10;49.50;;;;;;5054321;28;20029;-88
2021/10/15 12:40:24;;;;;;;5.30;1.00;;;20.30;50.30;;;;;;5054459;28;20021;-90
2021/10/15 12:42:56;;;;;;;11.25;1.17;;;19.80;51.10;;;;;;5055230;28;20017;-90
2021/10/15 12:45:24;;;;;;;7.88;1.52;;;19.50;51.80;;;;;;5056200;28;20033;-90
2021/10/15 12:48:02;;;;;;;10.90;1.20;;;19.60;52.80;;;;;;5056920;28;20032;-89
2021/10/15 12:50:30;;;;;;;8.55;1.30;;;20.30;53.60;;;;;;5055759;28;20051;-90
2021/10/15 12:52:57;;;;;;;9.73;1.27;;;21.10;53.10;;;;;;5055456;28;20495;-90
2021/10/15 12:55:28;;;;;;;5.82;1.10;;;21.90;51.70;;;;;;5055439;28;20493;-89
2021/10/15 12:58:04;;;;;;;9.65;1.65;;;22.60;50.40;;;;;;5053920;28;20112;-88
2021/10/15 13:00:31;;;;;;;8.23;1.48;;;23.30;48.80;;;;;;5055849;28;20044;-89
2021/10/15 13:03:05;;;;;;;8.38;1.35;;;23.80;48.10;;;;;;5054978;28;20024;-90
2021/10/15 13:05:33;;;;;;;8.95;1.55;;;24.40;46.50;;;;;;5055560;28;20060;-90